Time;durP1;ratioP1;P1;durP2;ratioP2;P2;SDS_P1;SDS_P2;PMS_P1;PMS_P2;Temp;Humidity;BMP_temperature;BMP_pressure;BME280_temperature;BME280_humidity;BME280_pressure;Samples;Min_cycle;Max_cycle;Signal;HPM_P1;HPM_P2
2021/04/01 00:02:08;;;;;;;34.90;19.97;;;15.40;1.00;;;;;;5013755;28;20645;-63
2021/04/01 00:04:34;;;;;;;37.90;21.60;;;15.50;1.00;;;;;;5012556;28;20222;-63
2021/04/01 00:07:00;;;;;;;29.90;19.03;;;15.50;1.00;;;;;;5013696;28;20221;-63
2021/04/01 00:09:26;;;;;;;30.97;19.80;;;15.60;1.00;;;;;;5013761;28;20185;-63
2021/04/01 00:11:52;;;;;;;32.13;18.93;;;15.60;1.00;;;;;;5013780;28;20420;-64
2021/04/01 00:14:20;;;;;;;36.27;20.53;;;15.70;1.00;;;;;;5012448;28;20485;-64
2021/04/01 00:16:45;;;;;;;37.13;21.75;;;15.70;1.00;;;;;;5012674;28;20190;-64
2021/04/01 00:19:12;;;;;;;34.87;20.10;;;15.50;1.00;;;;;;5013684;28;20192;-64
2021/04/01 00:21:37;;;;;;;37.40;22.80;;;15.20;1.00;;;;;;5013572;28;20511;-64
2021/04/01 00:24:03;;;;;;;37.07;22.50;;;14.70;1.00;;;;;;5013255;28;20173;-64
2021/04/01 00:26:29;;;;;;;38.17;22.30;;;14.30;1.00;;;;;;5013696;28;20307;-64
2021/04/01 00:28:54;;;;;;;38.00;22.27;;;14.40;1.00;;;;;;5013632;28;20328;-64
2021/04/01 00:31:20;;;;;;;38.50;22.90;;;14.50;1.00;;;;;;5013491;28;20193;-64
2021/04/01 00:33:45;;;;;;;39.00;23.60;;;14.20;1.00;;;;;;5013450;28;20293;-64
2021/04/01 00:36:11;;;;;;;43.10;26.47;;;14.10;1.00;;;;;;5013533;28;20221;-64
2021/04/01 00:38:36;;;;;;;42.20;23.63;;;14.10;1.00;;;;;;5013234;28;20196;-65
2021/04/01 00:41:02;;;;;;;40.97;24.47;;;14.10;1.00;;;;;;5013393;28;20183;-64
2021/04/01 00:43:28;;;;;;;41.97;24.70;;;14.20;1.00;;;;;;5013083;28;20631;-64
2021/04/01 00:45:53;;;;;;;43.87;25.20;;;14.30;1.00;;;;;;5012263;28;20540;-64
2021/04/01 00:48:19;;;;;;;45.57;26.83;;;14.60;1.00;;;;;;5015357;28;20307;-64
2021/04/01 00:50:44;;;;;;;40.50;23.83;;;14.70;1.00;;;;;;5016997;28;20182;-63
2021/04/01 00:53:10;;;;;;;45.97;26.20;;;14.50;1.00;;;;;;5016636;28;20178;-63
2021/04/01 00:55:37;;;;;;;43.30;25.57;;;14.40;1.00;;;;;;5016881;28;20618;-64
2021/04/01 00:58:04;;;;;;;39.00;24.83;;;14.60;1.00;;;;;;5016895;28;20428;-64
2021/04/01 01:00:32;;;;;;;40.90;25.55;;;14.50;1.00;;;;;;5016848;28;20193;-63
2021/04/01 01:02:58;;;;;;;44.08;26.17;;;14.50;1.00;;;;;;5016671;28;20661;-63
2021/04/01 01:05:25;;;;;;;45.83;30.30;;;14.50;1.00;;;;;;5016438;28;20209;-63
2021/04/01 01:07:51;;;;;;;47.45;28.40;;;14.70;1.00;;;;;;5016832;28;20570;-63
2021/04/01 01:10:20;;;;;;;51.93;28.13;;;15.00;1.00;;;;;;5016625;28;20177;-63
2021/04/01 01:12:46;;;;;;;45.45;27.60;;;14.90;1.00;;;;;;5016426;28;20960;-63
2021/04/01 01:15:13;;;;;;;48.07;27.20;;;15.10;1.00;;;;;;5016386;28;20193;-63
2021/04/01 01:17:39;;;;;;;46.13;26.42;;;15.30;1.00;;;;;;5016520;28;20299;-63
2021/04/01 01:20:09;;;;;;;40.13;25.23;;;15.20;1.00;;;;;;5016695;28;20614;-63
2021/04/01 01:22:35;;;;;;;39.72;26.58;;;15.20;1.00;;;;;;5016434;28;20729;-63
2021/04/01 01:25:01;;;;;;;45.55;24.98;;;15.20;1.00;;;;;;5016240;28;20189;-63
2021/04/01 01:27:27;;;;;;;48.72;26.75;;;15.00;1.00;;;;;;5016238;28;20289;-63
2021/04/01 01:29:53;;;;;;;40.30;25.23;;;14.90;1.00;;;;;;5016339;28;20373;-63
2021/04/01 01:32:20;;;;;;;47.25;27.50;;;14.90;1.00;;;;;;5016295;28;20209;-63
2021/04/01 01:34:46;;;;;;;45.50;29.37;;;15.10;1.00;;;;;;5015915;28;20512;-63
2021/04/01 01:37:15;;;;;;;44.00;27.13;;;14.80;1.00;;;;;;5015067;28;20440;-63
2021/04/01 01:39:41;;;;;;;52.30;29.15;;;14.90;1.00;;;;;;5016030;28;20527;-63
2021/04/01 01:42:07;;;;;;;50.33;29.30;;;14.90;1.00;;;;;;5016638;28;20506;-68
2021/04/01 01:44:33;;;;;;;52.63;28.47;;;14.80;1.00;;;;;;5016273;28;20316;-68
2021/04/01 01:46:59;;;;;;;53.80;29.13;;;14.80;1.00;;;;;;5016073;28;20236;-68
2021/04/01 01:49:25;;;;;;;48.43;29.17;;;14.90;1.00;;;;;;5016011;28;20275;-68
2021/04/01 01:51:51;;;;;;;50.33;28.80;;;15.00;1.00;;;;;;5016031;28;20882;-68
2021/04/01 01:54:18;;;;;;;50.60;28.25;;;15.10;1.00;;;;;;5014687;28;20224;-68
2021/04/01 01:56:44;;;;;;;49.05;29.70;;;15.30;1.00;;;;;;5015901;28;20224;-68
2021/04/01 01:59:10;;;;;;;44.40;26.80;;;15.50;1.00;;;;;;5015144;28;20186;-68
2021/04/01 02:01:35;;;;;;;52.40;28.50;;;15.50;1.00;;;;;;5015801;28;20181;-66
2021/04/01 02:04:05;;;;;;;44.60;28.27;;;15.50;1.00;;;;;;5015509;28;20444;-67
2021/04/01 02:06:32;;;;;;;47.47;27.67;;;15.50;1.00;;;;;;5015735;28;20221;-69
2021/04/01 02:09:00;;;;;;;48.70;27.23;;;15.70;1.00;;;;;;5017629;28;20802;-68
2021/04/01 02:11:27;;;;;;;48.87;28.70;;;15.80;1.00;;;;;;5016589;28;20178;-70
2021/04/01 02:13:55;;;;;;;48.65;27.85;;;15.80;1.00;;;;;;5016572;28;20425;-64
2021/04/01 02:16:20;;;;;;;48.03;27.77;;;15.70;1.00;;;;;;5015784;28;20189;-70
2021/04/01 02:18:46;;;;;;;48.93;27.30;;;15.70;1.00;;;;;;5016781;28;20216;-69
2021/04/01 02:21:14;;;;;;;53.42;29.65;;;15.40;1.00;;;;;;5014732;28;20182;-67
2021/04/01 02:23:41;;;;;;;46.03;27.50;;;15.00;1.00;;;;;;5015226;28;20177;-67
2021/04/01 02:26:07;;;;;;;51.47;29.77;;;14.80;1.00;;;;;;5014246;28;20552;-67
2021/04/01 02:28:35;;;;;;;48.67;27.97;;;14.60;1.00;;;;;;5015417;28;20623;-67
2021/04/01 02:31:06;;;;;;;44.97;26.35;;;14.30;1.00;;;;;;5014993;28;20512;-68
2021/04/01 02:33:35;;;;;;;46.45;26.95;;;14.20;1.00;;;;;;5014970;28;20187;-66
2021/04/01 02:36:01;;;;;;;44.53;27.33;;;14.00;1.00;;;;;;5014887;28;20191;-65
2021/04/01 02:38:27;;;;;;;47.25;26.05;;;13.90;1.00;;;;;;5013862;28;20211;-64
2021/04/01 02:40:55;;;;;;;49.07;27.70;;;13.80;1.00;;;;;;5014820;28;20183;-65
2021/04/01 02:45:52;;;;;;;47.90;26.60;;;13.60;1.00;;;;;;5014735;28;20216;-64
2021/04/01 02:48:18;;;;;;;42.97;25.37;;;13.60;1.00;;;;;;5015045;28;20514;-65
2021/04/01 02:50:43;;;;;;;46.80;26.80;;;13.80;1.00;;;;;;5014944;28;20173;-64
2021/04/01 02:53:10;;;;;;;46.53;26.83;;;14.10;1.00;;;;;;5014415;28;20507;-64
2021/04/01 02:55:35;;;;;;;44.88;26.65;;;14.40;1.00;;;;;;5014755;28;20188;-67
2021/04/01 02:58:01;;;;;;;50.53;26.40;;;14.50;1.00;;;;;;5014735;28;20188;-67
2021/04/01 03:00:29;;;;;;;46.63;27.73;;;14.70;1.00;;;;;;5014740;28;20181;-67
2021/04/01 03:02:59;;;;;;;47.17;28.13;;;14.70;1.00;;;;;;5014557;28;20509;-67
2021/04/01 03:05:25;;;;;;;47.85;26.50;;;14.60;1.00;;;;;;5013336;28;20220;-65
2021/04/01 03:07:51;;;;;;;46.13;27.50;;;14.60;1.00;;;;;;5014296;28;20178;-64
2021/04/01 03:10:16;;;;;;;48.30;26.90;;;14.50;1.00;;;;;;5014147;28;20214;-64
2021/04/01 03:12:42;;;;;;;46.00;27.40;;;14.80;1.00;;;;;;5014391;28;20265;-64
2021/04/01 03:15:10;;;;;;;44.97;26.70;;;14.90;1.00;;;;;;5014127;28;20265;-64
2021/04/01 03:17:37;;;;;;;52.30;27.42;;;14.60;1.00;;;;;;5014265;28;20180;-64
2021/04/01 03:20:04;;;;;;;47.88;28.75;;;14.80;1.00;;;;;;5013162;28;20188;-64
2021/04/01 03:22:29;;;;;;;44.65;27.77;;;14.90;1.00;;;;;;5013124;28;20185;-64
2021/04/01 03:24:55;;;;;;;48.53;25.73;;;14.70;1.00;;;;;;5012913;28;20177;-64
2021/04/01 03:27:20;;;;;;;37.83;22.93;;;14.90;1.00;;;;;;5014191;28;20558;-64
2021/04/01 03:30:03;;;;;;;42.60;25.17;;;14.10;1.00;;;;;;5014173;28;20636;-64
2021/04/01 03:32:30;;;;;;;41.75;25.00;;;13.40;1.00;;;;;;5014132;28;20234;-64
2021/04/01 03:34:55;;;;;;;39.38;24.50;;;13.30;1.00;;;;;;5012696;28;20488;-64
2021/04/01 03:37:21;;;;;;;47.43;27.20;;;13.20;1.00;;;;;;5013862;28;20186;-64
2021/04/01 03:39:46;;;;;;;42.57;26.93;;;13.10;1.00;;;;;;5014012;28;20230;-64
2021/04/01 03:42:12;;;;;;;40.80;24.90;;;13.10;1.00;;;;;;5013990;28;20656;-63
2021/04/01 03:44:37;;;;;;;41.30;26.60;;;13.30;1.00;;;;;;5013786;28;20174;-64
2021/04/01 03:47:03;;;;;;;46.53;25.57;;;13.30;1.00;;;;;;5014050;28;20222;-63
2021/04/01 03:49:29;;;;;;;40.27;25.03;;;13.30;1.00;;;;;;5012955;28;20184;-63
2021/04/01 03:51:54;;;;;;;47.33;25.97;;;13.30;1.00;;;;;;5013828;28;20653;-63
2021/04/01 03:54:20;;;;;;;40.60;24.37;;;13.20;1.00;;;;;;5013664;28;20200;-63
2021/04/01 03:56:48;;;;;;;43.77;25.80;;;13.40;1.00;;;;;;5013892;28;20220;-64
2021/04/01 03:59:17;;;;;;;47.72;26.45;;;13.50;1.00;;;;;;5014098;28;20174;-64
2021/04/01 04:04:19;;;;;;;42.80;25.10;;;13.60;1.00;;;;;;5013584;28;20329;-63
2021/04/01 04:09:41;;;;;;;39.97;24.77;;;13.90;1.00;;;;;;5014060;28;20508;-63
2021/04/01 04:15:19;;;;;;;50.17;28.15;;;13.60;1.00;;;;;;5013367;28;20175;-63
2021/04/01 04:17:24;;;;;;;44.40;26.70;;;13.40;1.00;;;;;;5005382;28;20338;-63
2021/04/01 04:19:50;;;;;;;50.10;26.50;;;13.40;1.00;;;;;;5013473;28;20614;-63
2021/04/01 04:22:15;;;;;;;50.33;28.60;;;13.30;1.00;;;;;;5013802;28;20176;-63
2021/04/01 04:24:41;;;;;;;42.67;26.07;;;13.10;1.00;;;;;;5016019;28;20184;-63
2021/04/01 04:27:38;;;;;;;41.70;25.40;;;13.00;1.00;;;;;;5017055;28;20656;-63
2021/04/01 04:30:01;;;;;;;47.20;28.25;;;12.80;1.00;;;;;;5016997;28;20706;-63
2021/04/01 04:32:28;;;;;;;46.47;27.23;;;12.80;1.00;;;;;;5017262;28;20179;-63
2021/04/01 04:34:54;;;;;;;43.95;27.50;;;12.80;1.00;;;;;;5016912;28;20202;-63
2021/04/01 04:37:20;;;;;;;49.10;26.93;;;12.50;1.00;;;;;;5016933;28;20190;-63
2021/04/01 04:39:46;;;;;;;43.10;27.47;;;12.40;1.00;;;;;;5016941;28;20195;-63
2021/04/01 04:42:12;;;;;;;52.63;28.70;;;12.40;1.00;;;;;;5016930;28;20875;-63
2021/04/01 04:44:37;;;;;;;50.73;27.83;;;12.60;1.00;;;;;;5016637;28;20183;-63
2021/04/01 04:47:03;;;;;;;48.57;28.33;;;12.60;1.00;;;;;;5016964;28;20561;-65
2021/04/01 04:49:29;;;;;;;46.87;27.87;;;12.60;1.00;;;;;;5016854;28;20298;-66
2021/04/01 04:51:54;;;;;;;46.57;27.97;;;12.60;1.00;;;;;;5016922;28;20427;-65
2021/04/01 04:54:20;;;;;;;48.00;28.60;;;12.60;1.00;;;;;;5016609;28;20282;-65
2021/04/01 04:56:47;;;;;;;52.20;30.13;;;12.90;1.00;;;;;;5016723;28;20241;-65
2021/04/01 04:59:25;;;;;;;48.92;27.98;;;13.10;1.00;;;;;;5016781;28;20511;-66
2021/04/01 05:04:53;;;;;;;47.22;28.92;;;12.90;1.00;;;;;;5016221;28;20671;-66
2021/04/01 05:07:18;;;;;;;50.28;28.65;;;13.00;1.00;;;;;;5016467;28;20211;-68
2021/04/01 05:09:44;;;;;;;52.77;29.73;;;12.70;1.00;;;;;;5016631;28;20229;-67
2021/04/01 05:12:10;;;;;;;51.80;29.80;;;12.70;1.00;;;;;;5016395;28;20234;-68
2021/04/01 05:14:35;;;;;;;56.80;31.50;;;12.40;1.00;;;;;;5015317;28;20509;-68
2021/04/01 05:17:01;;;;;;;45.93;28.60;;;12.40;1.00;;;;;;5016303;28;20434;-68
2021/04/01 05:19:27;;;;;;;51.40;28.90;;;12.40;1.00;;;;;;5015503;28;20179;-68
2021/04/01 05:22:00;;;;;;;52.28;29.48;;;12.40;1.00;;;;;;5015309;28;20249;-68
2021/04/01 05:24:27;;;;;;;52.05;30.30;;;12.30;1.00;;;;;;5015101;28;20187;-67
2021/04/01 05:29:25;;;;;;;53.95;29.50;;;12.10;19.10;;;;;;5016124;28;20180;-68
2021/04/01 05:31:51;;;;;;;53.50;29.95;;;12.00;46.00;;;;;;5015127;28;20642;-68
2021/04/01 05:34:17;;;;;;;49.73;30.13;;;11.90;42.70;;;;;;5012203;28;20195;-68
2021/04/01 05:36:45;;;;;;;56.47;31.40;;;12.10;86.30;;;;;;5014888;28;20183;-69
2021/04/01 05:39:12;;;;;;;51.90;31.08;;;12.10;39.70;;;;;;5016006;28;20285;-68
2021/04/01 05:41:42;;;;;;;53.38;32.53;;;12.20;2.10;;;;;;5015165;28;20568;-68
2021/04/01 05:46:58;;;;;;;60.28;32.13;;;12.50;1.00;;;;;;5015780;28;20217;-67
2021/04/01 06:06:00;;;;;;;52.22;30.23;;;13.20;1.00;;;;;;5014011;28;20223;-68
2021/04/01 06:08:30;;;;;;;58.38;30.52;;;13.10;1.00;;;;;;5014978;28;20559;-68
2021/04/01 06:10:56;;;;;;;56.40;32.83;;;13.30;1.00;;;;;;5015211;28;20179;-68
2021/04/01 06:13:27;;;;;;;59.08;34.60;;;13.30;1.00;;;;;;5014672;28;20186;-68
2021/04/01 06:15:52;;;;;;;55.90;33.40;;;13.30;1.00;;;;;;5014174;28;20194;-69
2021/04/01 06:18:20;;;;;;;59.07;32.60;;;13.50;1.00;;;;;;5014999;28;20254;-68
2021/04/01 06:20:48;;;;;;;61.17;34.50;;;13.50;1.00;;;;;;5014838;28;20179;-68
2021/04/01 06:23:28;;;;;;;56.60;34.03;;;13.20;1.00;;;;;;5013649;28;20187;-68
2021/04/01 06:25:55;;;;;;;54.47;34.63;;;13.30;1.00;;;;;;5014696;28;20213;-68
2021/04/01 06:28:32;;;;;;;62.80;34.38;;;13.70;1.00;;;;;;5014914;28;20186;-68
2021/04/01 06:30:59;;;;;;;63.10;35.83;;;14.10;1.00;;;;;;5013779;28;20176;-67
2021/04/01 06:33:27;;;;;;;67.85;38.38;;;13.70;1.00;;;;;;5014390;28;20611;-67
2021/04/01 06:35:58;;;;;;;57.10;31.67;;;13.70;1.00;;;;;;5014853;28;20184;-67
2021/04/01 06:38:25;;;;;;;61.13;34.67;;;13.30;1.00;;;;;;5013588;28;20270;-68
2021/04/01 06:41:00;;;;;;;64.25;34.97;;;13.10;1.00;;;;;;5011978;28;20616;-67
2021/04/01 06:43:28;;;;;;;57.85;35.72;;;13.00;1.00;;;;;;5024052;28;20196;-66
2021/04/01 06:45:56;;;;;;;60.72;33.85;;;12.80;1.00;;;;;;5018870;28;20668;-67
2021/04/01 06:48:27;;;;;;;65.38;36.28;;;12.60;1.00;;;;;;5017215;28;20199;-68
2021/04/01 06:51:05;;;;;;;61.15;34.38;;;12.50;1.00;;;;;;5026587;28;20182;-68
2021/04/01 06:53:45;;;;;;;79.38;39.15;;;12.30;1.00;;;;;;5022960;28;20195;-68
2021/04/01 07:04:34;;;;;;;74.63;38.80;;;11.80;1.00;;;;;;5009582;28;20289;-68
2021/04/01 07:07:05;;;;;;;73.88;39.00;;;11.70;1.00;;;;;;5022781;28;20206;-68
2021/04/01 07:12:15;;;;;;;70.20;38.08;;;11.70;1.00;;;;;;5027404;28;20183;-68
2021/04/01 07:14:43;;;;;;;75.43;36.70;;;11.70;1.00;;;;;;5012670;28;20174;-68
2021/04/01 07:17:58;;;;;;;67.93;38.55;;;11.80;1.00;;;;;;5014282;28;20182;-68
2021/04/01 07:23:12;;;;;;;68.60;38.88;;;11.90;1.00;;;;;;5014234;28;20183;-68
2021/04/01 07:47:42;;;;;;;79.63;41.53;;;12.10;99.90;;;;;;5014620;28;20260;-67
2021/04/01 07:50:17;;;;;;;77.97;43.65;;;11.80;99.90;;;;;;5018755;28;20483;-66
2021/04/01 07:52:51;;;;;;;85.70;43.40;;;11.80;99.90;;;;;;5019100;28;20195;-67
2021/04/01 08:00:42;;;;;;;73.35;40.90;;;12.30;99.90;;;;;;5018811;28;20501;-65
2021/04/01 08:06:26;;;;;;;79.65;45.00;;;11.90;1.00;;;;;;5027737;28;20557;-64
2021/04/01 08:08:57;;;;;;;76.35;43.20;;;12.10;99.90;;;;;;5017882;28;20178;-66
2021/04/01 08:11:27;;;;;;;79.30;41.72;;;12.40;99.90;;;;;;5027553;28;20183;-66
2021/04/01 08:14:18;;;;;;;79.93;40.88;;;12.40;99.90;;;;;;5026213;28;20183;-68
2021/04/01 08:19:17;;;;;;;69.35;36.60;;;12.10;1.00;;;;;;5035452;28;20175;-68
2021/04/01 08:21:46;;;;;;;76.63;39.88;;;11.70;1.00;;;;;;5017477;28;20533;-67
2021/04/01 08:24:18;;;;;;;72.90;42.80;;;11.40;1.00;;;;;;5017120;28;20248;-67
2021/04/01 08:26:56;;;;;;;76.80;40.78;;;11.40;99.90;;;;;;5017144;28;20202;-65
2021/04/01 08:30:20;;;;;;;75.88;40.22;;;11.50;7.20;;;;;;5017441;28;20221;-65
2021/04/01 08:35:12;;;;;;;71.90;38.28;;;11.70;99.90;;;;;;5016878;28;20182;-67
2021/04/01 08:37:49;;;;;;;63.10;35.55;;;11.90;99.90;;;;;;5016830;28;20182;-65
2021/04/01 08:40:15;;;;;;;67.20;37.58;;;11.70;99.90;;;;;;5016840;28;20175;-65
2021/04/01 08:42:54;;;;;;;60.60;34.43;;;11.60;1.00;;;;;;5016789;28;20381;-65
2021/04/01 08:45:48;;;;;;;60.90;33.67;;;11.60;99.90;;;;;;5017071;28;20430;-65
2021/04/01 08:48:40;;;;;;;66.38;36.40;;;11.80;1.00;;;;;;5007794;28;20278;-66
2021/04/01 08:51:33;;;;;;;62.65;32.42;;;12.10;61.10;;;;;;4997275;28;20215;-67
2021/04/01 08:54:14;;;;;;;58.85;32.28;;;12.30;1.00;;;;;;4995879;28;20191;-67
2021/04/01 08:56:48;;;;;;;53.88;31.38;;;12.10;1.00;;;;;;4997194;28;20178;-68
2021/04/01 08:59:23;;;;;;;51.53;32.75;;;12.60;1.00;;;;;;4997857;28;20238;-66
2021/04/01 09:01:55;;;;;;;55.15;32.38;;;12.50;99.90;;;;;;4997454;28;20176;-64
2021/04/01 09:04:26;;;;;;;49.97;30.25;;;12.40;1.00;;;;;;5007501;28;20195;-65
2021/04/01 09:07:14;;;;;;;52.08;28.63;;;12.40;1.00;;;;;;5016719;28;20651;-65
2021/04/01 09:09:42;;;;;;;48.60;21.48;;;12.00;1.00;;;;;;5016763;28;20206;-65
2021/04/01 09:12:26;;;;;;;38.08;21.73;;;11.90;9.30;;;;;;5017767;28;20187;-66
2021/04/01 09:15:00;;;;;;;44.95;27.90;;;11.90;41.00;;;;;;5018727;28;20174;-65
2021/04/01 09:17:31;;;;;;;50.10;28.95;;;12.40;1.00;;;;;;5018027;28;20184;-65
2021/04/01 09:19:58;;;;;;;40.65;24.38;;;12.30;99.90;;;;;;5016693;28;20278;-66
2021/04/01 09:22:30;;;;;;;41.65;25.45;;;12.20;1.00;;;;;;5018125;28;20214;-67
2021/04/01 09:25:04;;;;;;;39.13;23.08;;;12.00;1.00;;;;;;5017404;28;20178;-66
2021/04/01 09:27:30;;;;;;;26.90;16.02;;;12.00;1.00;;;;;;5018234;28;20723;-64
2021/04/01 09:30:10;;;;;;;23.00;13.23;;;12.00;25.20;;;;;;5019106;28;20179;-68
2021/04/01 09:32:38;;;;;;;21.48;13.68;;;12.20;1.00;;;;;;5018765;28;20824;-68
2021/04/01 09:35:05;;;;;;;19.00;12.40;;;12.20;1.00;;;;;;5017805;28;20181;-68
2021/04/01 09:37:32;;;;;;;23.50;12.65;;;12.20;1.00;;;;;;5016579;28;20250;-69
2021/04/01 09:40:12;;;;;;;23.02;12.82;;;12.30;1.00;;;;;;5016698;28;20264;-69
2021/04/01 09:42:42;;;;;;;22.63;12.70;;;12.50;99.90;;;;;;4996829;28;20518;-67
2021/04/01 09:45:12;;;;;;;20.23;10.45;;;12.50;1.00;;;;;;4996335;28;20195;-68
2021/04/01 09:47:43;;;;;;;17.67;11.13;;;12.50;1.00;;;;;;4996453;28;20206;-68
2021/04/01 09:50:11;;;;;;;19.70;10.50;;;12.20;1.00;;;;;;4997436;28;20200;-68
2021/04/01 09:52:39;;;;;;;18.15;11.95;;;12.20;1.00;;;;;;4996998;28;20172;-68
2021/04/01 09:55:16;;;;;;;15.15;10.25;;;12.40;1.00;;;;;;4997221;28;20204;-67
2021/04/01 09:57:46;;;;;;;17.45;10.50;;;12.70;1.00;;;;;;5014292;28;20176;-68
2021/04/01 10:00:22;;;;;;;18.67;11.65;;;12.90;99.90;;;;;;4996863;28;20347;-66
2021/04/01 10:03:04;;;;;;;20.90;11.20;;;13.00;99.90;;;;;;4997751;28;20522;-67
2021/04/01 10:05:42;;;;;;;14.75;9.48;;;13.20;99.90;;;;;;5002304;28;20353;-68
2021/04/01 10:08:21;;;;;;;14.85;9.40;;;13.20;99.90;;;;;;4999511;28;20260;-68
2021/04/01 10:10:50;;;;;;;14.10;8.07;;;12.80;99.90;;;;;;5003489;28;20180;-68
2021/04/01 10:13:21;;;;;;;15.70;9.50;;;12.70;1.00;;;;;;5017670;28;20187;-68
2021/04/01 10:15:47;;;;;;;17.15;9.02;;;13.20;99.90;;;;;;5020935;28;20207;-68
2021/04/01 10:18:36;;;;;;;15.32;8.75;;;13.50;1.00;;;;;;5019332;28;20226;-68
2021/04/01 10:21:03;;;;;;;14.15;8.80;;;13.00;99.90;;;;;;5019190;28;20223;-67
2021/04/01 10:23:29;;;;;;;15.55;9.52;;;12.50;1.00;;;;;;5024618;28;20249;-67
2021/04/01 10:26:07;;;;;;;14.07;7.23;;;12.70;1.00;;;;;;5019949;28;20249;-66
2021/04/01 10:28:45;;;;;;;14.13;7.20;;;12.70;1.00;;;;;;5017801;28;20180;-66
2021/04/01 10:31:18;;;;;;;11.38;7.90;;;12.20;1.00;;;;;;5016721;28;20623;-67
2021/04/01 10:34:16;;;;;;;12.77;8.73;;;12.10;99.90;;;;;;5021316;28;20175;-65
2021/04/01 10:36:43;;;;;;;11.43;7.60;;;11.90;1.00;;;;;;5022115;28;20175;-65
2021/04/01 10:39:11;;;;;;;10.20;5.95;;;11.70;1.00;;;;;;5019590;28;20238;-65
2021/04/01 10:41:50;;;;;;;8.05;6.13;;;11.50;1.00;;;;;;5018835;28;20210;-64
2021/04/01 10:44:17;;;;;;;7.68;4.22;;;11.20;99.90;;;;;;5036171;28;20186;-64
2021/04/01 10:46:56;;;;;;;12.98;5.85;;;10.90;1.00;;;;;;5019476;28;20222;-64
2021/04/01 10:49:28;;;;;;;6.75;2.58;;;10.90;1.00;;;;;;5018712;28;20179;-67
2021/04/01 10:51:57;;;;;;;10.40;5.88;;;10.60;99.90;;;;;;5018729;28;20187;-66
2021/04/01 10:54:25;;;;;;;7.18;4.65;;;10.80;99.90;;;;;;5022485;28;20222;-65
2021/04/01 10:56:55;;;;;;;14.43;7.53;;;10.80;99.90;;;;;;5013445;28;20198;-65
2021/04/01 10:59:37;;;;;;;8.93;5.28;;;10.90;99.90;;;;;;5025211;28;20235;-65
2021/04/01 11:02:13;;;;;;;10.23;5.25;;;10.80;99.90;;;;;;5041329;28;20206;-67
2021/04/01 11:04:40;;;;;;;7.28;5.57;;;10.80;56.10;;;;;;5041485;28;20181;-67
2021/04/01 11:07:08;;;;;;;10.85;5.45;;;10.70;1.00;;;;;;5041416;28;20221;-66
2021/04/01 11:09:35;;;;;;;8.70;4.32;;;10.80;1.00;;;;;;5041060;28;20210;-67
2021/04/01 11:14:36;;;;;;;11.15;4.20;;;10.60;99.90;;;;;;5027768;28;20182;-69
2021/04/01 11:17:02;;;;;;;9.53;3.60;;;10.60;99.90;;;;;;5039621;28;20615;-68
2021/04/01 11:19:32;;;;;;;11.43;5.47;;;10.50;1.00;;;;;;5025252;28;20425;-70
2021/04/01 11:22:01;;;;;;;8.80;4.82;;;10.30;1.00;;;;;;5034877;28;20217;-68
2021/04/01 11:24:38;;;;;;;7.13;4.30;;;10.30;1.00;;;;;;5018981;28;20233;-68
2021/04/01 11:27:08;;;;;;;8.73;4.45;;;10.10;1.00;;;;;;5020241;28;20209;-66
2021/04/01 11:29:33;;;;;;;8.93;3.83;;;10.10;99.90;;;;;;5024258;28;20220;-66
2021/04/01 11:32:15;;;;;;;8.27;5.27;;;9.90;99.90;;;;;;5020331;28;20182;-66
2021/04/01 11:34:47;;;;;;;10.95;4.82;;;9.90;99.90;;;;;;5018217;28;20622;-65
2021/04/01 11:37:17;;;;;;;7.03;3.45;;;9.70;99.90;;;;;;5018008;28;20491;-65
2021/04/01 11:39:43;;;;;;;6.43;2.75;;;9.60;99.90;;;;;;5025057;28;20255;-69
2021/04/01 11:42:14;;;;;;;5.07;3.47;;;9.60;1.00;;;;;;5028415;28;20205;-69
2021/04/01 11:44:41;;;;;;;8.05;3.30;;;9.90;1.00;;;;;;5043828;28;20927;-70
2021/04/01 11:47:21;;;;;;;4.53;3.65;;;10.30;41.60;;;;;;5039739;28;20267;-70
2021/04/01 11:49:48;;;;;;;5.00;3.35;;;10.80;99.90;;;;;;5040920;28;20180;-68
2021/04/01 11:52:17;;;;;;;4.82;2.92;;;10.70;1.00;;;;;;5035115;28;20169;-69
2021/04/01 11:54:43;;;;;;;6.10;3.40;;;11.00;1.00;;;;;;5034146;28;20252;-68
2021/04/01 11:57:30;;;;;;;3.40;2.63;;;11.40;1.00;;;;;;5034029;28;20178;-66
2021/04/01 12:05:24;;;;;;;4.35;2.85;;;11.40;1.00;;;;;;4998114;28;20254;-68
2021/04/01 12:07:51;;;;;;;4.68;2.85;;;11.30;94.80;;;;;;5014829;28;20178;-69
2021/04/01 12:10:17;;;;;;;4.55;3.30;;;11.50;1.00;;;;;;5015084;28;20171;-68
2021/04/01 12:12:43;;;;;;;4.97;2.17;;;11.70;99.90;;;;;;5014335;28;20193;-68
2021/04/01 12:15:09;;;;;;;4.00;3.10;;;11.50;99.90;;;;;;5014061;28;20183;-69
2021/04/01 12:17:45;;;;;;;3.13;2.80;;;11.90;12.90;;;;;;5012969;28;20248;-66
2021/04/01 12:20:13;;;;;;;3.28;2.38;;;11.70;1.00;;;;;;5013959;28;20214;-67
2021/04/01 12:22:43;;;;;;;3.55;2.80;;;11.30;1.00;;;;;;5013248;28;20175;-66
2021/04/01 12:25:12;;;;;;;5.13;2.70;;;11.80;1.00;;;;;;5012946;28;20269;-64
2021/04/01 12:27:38;;;;;;;3.97;3.15;;;11.90;99.90;;;;;;5013180;28;20231;-63
2021/04/01 12:30:06;;;;;;;4.40;2.90;;;11.70;1.00;;;;;;5012470;28;20268;-64
2021/04/01 12:32:35;;;;;;;5.57;3.42;;;11.40;1.00;;;;;;5012902;28;20278;-64
2021/04/01 12:35:13;;;;;;;3.50;2.38;;;11.70;1.00;;;;;;5012832;28;20179;-69
2021/04/01 12:37:40;;;;;;;6.63;2.60;;;11.90;1.00;;;;;;5013542;28;20263;-66
2021/04/01 12:40:17;;;;;;;3.50;2.90;;;12.00;1.00;;;;;;5012386;28;20192;-67
2021/04/01 12:42:43;;;;;;;2.13;1.92;;;11.90;1.00;;;;;;4992665;28;20190;-65
2021/04/01 12:45:17;;;;;;;5.68;3.05;;;11.50;99.90;;;;;;4996774;28;20180;-65
2021/04/01 12:47:43;;;;;;;5.88;3.30;;;11.40;99.90;;;;;;4997196;28;20215;-64
2021/04/01 12:50:11;;;;;;;4.32;3.40;;;11.10;99.90;;;;;;4996995;28;20183;-64
2021/04/01 12:53:03;;;;;;;4.43;2.92;;;11.20;99.90;;;;;;4997265;28;20331;-64
2021/04/01 12:58:26;;;;;;;3.83;3.05;;;11.60;1.00;;;;;;4999002;28;20510;-69
2021/04/01 13:00:57;;;;;;;2.45;2.10;;;11.70;1.00;;;;;;4998150;28;20172;-69
2021/04/01 13:03:23;;;;;;;5.80;2.17;;;11.60;1.00;;;;;;5000040;28;20245;-69
2021/04/01 13:05:53;;;;;;;2.73;1.93;;;11.30;1.00;;;;;;5010342;28;20219;-69
2021/04/01 13:11:00;;;;;;;1.98;1.60;;;11.00;1.00;;;;;;5014203;28;20179;-64
2021/04/01 13:13:26;;;;;;;3.30;2.23;;;10.80;99.90;;;;;;5016073;28;20185;-64
2021/04/01 13:15:52;;;;;;;3.93;1.30;;;11.00;99.90;;;;;;5015157;28;20436;-65
2021/04/01 13:18:17;;;;;;;4.13;1.70;;;10.80;99.90;;;;;;5018558;28;20505;-64
2021/04/01 13:20:43;;;;;;;1.90;1.60;;;10.70;99.90;;;;;;5028860;28;20194;-64
2021/04/01 13:23:12;;;;;;;1.87;1.30;;;10.70;1.00;;;;;;5025153;28;20189;-64
2021/04/01 13:25:38;;;;;;;4.45;1.80;;;10.70;1.00;;;;;;5031540;28;20451;-64
2021/04/01 13:28:07;;;;;;;3.27;1.67;;;10.60;1.00;;;;;;5035251;28;20510;-67
2021/04/01 13:30:36;;;;;;;2.28;1.40;;;10.60;1.00;;;;;;5036416;28;20223;-65
2021/04/01 13:33:20;;;;;;;2.58;2.10;;;10.70;99.90;;;;;;5036511;28;20288;-66
2021/04/01 13:35:54;;;;;;;1.58;1.48;;;10.50;1.00;;;;;;5036124;28;20236;-65
2021/04/01 13:38:22;;;;;;;2.22;1.23;;;10.60;1.00;;;;;;5036212;28;20194;-67
2021/04/01 13:40:50;;;;;;;2.58;1.77;;;10.10;99.90;;;;;;5035991;28;20177;-66
2021/04/01 13:43:24;;;;;;;2.67;1.88;;;10.10;1.00;;;;;;5035875;28;20186;-65
2021/04/01 13:45:49;;;;;;;2.85;2.05;;;9.80;99.90;;;;;;5035833;28;20206;-65
2021/04/01 13:48:23;;;;;;;2.10;1.90;;;9.90;87.70;;;;;;5035712;28;20511;-67
2021/04/01 13:50:53;;;;;;;3.13;1.40;;;10.00;1.00;;;;;;5035622;28;20425;-66
2021/04/01 13:53:46;;;;;;;2.60;1.42;;;9.90;1.00;;;;;;5034590;28;20513;-66
2021/04/01 13:56:19;;;;;;;5.38;2.45;;;9.70;1.00;;;;;;5034714;28;20201;-66
2021/04/01 14:09:57;;;;;;;1.15;1.05;;;9.10;1.00;;;;;;4994881;28;20221;-64
2021/04/01 14:12:25;;;;;;;2.95;1.50;;;8.90;1.00;;;;;;5013579;28;20193;-64
2021/04/01 14:14:51;;;;;;;1.23;1.13;;;9.00;79.70;;;;;;5026987;28;20243;-65
2021/04/01 14:17:17;;;;;;;1.43;0.90;;;9.20;1.00;;;;;;5034597;28;20190;-64
2021/04/01 14:19:44;;;;;;;1.83;1.05;;;9.20;1.00;;;;;;5034701;28;20216;-64
2021/04/01 14:22:10;;;;;;;1.50;0.95;;;9.10;1.00;;;;;;5033856;28;20269;-65
2021/04/01 14:24:44;;;;;;;1.63;1.50;;;9.00;1.00;;;;;;5035263;28;20341;-65
2021/04/01 14:29:56;;;;;;;0.73;0.60;;;9.20;1.00;;;;;;5035742;28;20251;-65
2021/04/01 14:32:27;;;;;;;2.28;1.50;;;9.30;99.90;;;;;;5035492;28;20178;-64
2021/04/01 14:35:01;;;;;;;3.42;1.55;;;9.00;1.00;;;;;;5035073;28;20704;-64
2021/04/01 14:37:32;;;;;;;2.95;1.50;;;9.20;1.00;;;;;;5035360;28;20192;-64
2021/04/01 14:40:01;;;;;;;1.15;0.95;;;9.70;99.90;;;;;;5035384;28;20178;-64
2021/04/01 14:42:44;;;;;;;1.30;1.20;;;9.70;99.90;;;;;;5035239;28;20178;-64
2021/04/01 14:45:10;;;;;;;2.17;1.40;;;9.40;99.90;;;;;;5034898;28;20182;-64
2021/04/01 14:47:35;;;;;;;1.90;1.50;;;9.40;1.00;;;;;;5034499;28;20205;-65